Proyecto Veve Calzada 3, Puerto Rico
Current Conditions -  °F | °C
As of 11:53 AM on Saturday 20 Dec 2014 (Local Time) from TJNR Reporting Station
Clear Clear  
Wind Chill: 83°   Ceiling: Unl
Heat Index: 87°   Visibility: 10mi
Dew Point: 70°   Wind: 9mph
Humidity: 65%   Direction: 60°ENE
Pressure: 30.07"   Gusts: NA
Location:  18.3304°N, 65.6573°W
Report Text: TJNR 201553Z AUTO 06008KT 10SM CLR 28/21 A3007 RMK AO2 SLP183 T02830211 $
Loading
Personal Weather Stations






























Interactive Weather Map New forecast layout! Learn more

10-Day Weather Forecast

Advertisements
Track Severe Weather on mobile